createdAt,value
2022-10-21T00:01:09.909Z,10.31
2022-10-21T00:06:09.850Z,10.28
2022-10-21T00:11:09.784Z,10.30
2022-10-21T00:16:09.721Z,10.27
2022-10-21T00:21:09.655Z,10.24
2022-10-21T00:26:09.585Z,10.24
2022-10-21T00:31:09.536Z,10.24
2022-10-21T00:36:09.463Z,10.23
2022-10-21T00:41:09.418Z,10.16
2022-10-21T00:46:09.321Z,10.14
2022-10-21T00:51:09.277Z,10.16
2022-10-21T00:56:12.851Z,10.14
2022-10-21T01:01:10.217Z,10.21
2022-10-21T01:06:09.088Z,10.14
2022-10-21T01:11:09.005Z,10.17
2022-10-21T01:16:08.954Z,10.16
2022-10-21T01:21:08.865Z,10.26
2022-10-21T01:26:08.836Z,10.24
2022-10-21T01:31:08.816Z,10.26
2022-10-21T01:36:08.686Z,10.20
2022-10-21T01:41:08.638Z,10.17
2022-10-21T01:46:08.547Z,10.12
2022-10-21T01:51:08.497Z,10.03
2022-10-21T01:56:08.437Z,9.99
2022-10-21T02:01:08.442Z,9.99
2022-10-21T02:06:08.307Z,9.99
2022-10-21T02:11:08.251Z,9.98
2022-10-21T02:16:08.191Z,10.01
2022-10-21T02:21:08.163Z,9.99
2022-10-21T02:26:08.062Z,9.96
2022-10-21T02:31:07.988Z,9.99
2022-10-21T02:36:07.933Z,9.96
2022-10-21T02:41:07.860Z,9.87
2022-10-21T02:46:07.800Z,9.83
2022-10-21T02:51:07.743Z,9.83
2022-10-21T02:56:07.671Z,9.84
2022-10-21T03:01:07.645Z,9.83
2022-10-21T03:06:07.574Z,9.84
2022-10-21T03:11:07.498Z,9.80
2022-10-21T03:16:07.518Z,9.73
2022-10-21T03:21:07.342Z,9.70
2022-10-21T03:26:07.270Z,9.72
2022-10-21T03:31:07.234Z,9.69
2022-10-21T03:36:07.151Z,9.70
2022-10-21T03:41:07.094Z,9.67
2022-10-21T03:46:07.069Z,9.72
2022-10-21T03:51:06.954Z,9.63
2022-10-21T03:56:06.922Z,9.63
2022-10-21T04:01:06.854Z,9.55
2022-10-21T04:06:06.756Z,9.52
2022-10-21T04:11:07.032Z,9.48
2022-10-21T04:16:06.656Z,9.55
2022-10-21T04:21:06.584Z,9.54
2022-10-21T04:26:06.506Z,9.51
2022-10-21T04:31:06.457Z,9.48
2022-10-21T04:36:06.428Z,9.50
2022-10-21T04:41:06.317Z,9.52
2022-10-21T04:46:07.633Z,9.55
2022-10-21T04:51:06.219Z,9.54
2022-10-21T04:56:06.170Z,9.63
2022-10-21T05:01:06.087Z,9.63
2022-10-21T05:06:06.017Z,9.69
2022-10-21T05:11:05.974Z,9.67
2022-10-21T05:16:05.879Z,9.55
2022-10-21T05:21:05.850Z,9.54
2022-10-21T05:26:05.751Z,9.51
2022-10-21T05:31:05.708Z,9.44
2022-10-21T05:36:05.630Z,9.34
2022-10-21T05:41:05.573Z,9.22
2022-10-21T05:46:05.513Z,9.29
2022-10-21T05:51:05.453Z,9.32
2022-10-21T05:56:05.385Z,9.19
2022-10-21T06:01:05.320Z,9.12
2022-10-21T06:06:05.254Z,9.09
2022-10-21T06:11:05.190Z,9.14
2022-10-21T06:21:05.053Z,9.12
2022-10-21T06:26:05.006Z,9.26
2022-10-21T06:31:04.942Z,9.26
2022-10-21T06:36:04.863Z,9.26
2022-10-21T06:41:07.974Z,9.24
2022-10-21T06:46:05.747Z,9.34
2022-10-21T06:51:04.663Z,9.40
2022-10-21T06:56:04.635Z,9.41
2022-10-21T07:01:04.575Z,9.45
2022-10-21T07:06:04.495Z,9.55
2022-10-21T07:11:04.435Z,9.63
2022-10-21T07:16:04.360Z,9.78
2022-10-21T07:21:04.306Z,9.83
2022-10-21T07:26:04.245Z,9.90
2022-10-21T07:31:04.177Z,9.98
2022-10-21T07:36:04.105Z,10.08
2022-10-21T07:41:04.065Z,10.24
2022-10-21T07:46:06.812Z,10.31
2022-10-21T07:51:03.917Z,10.41
2022-10-21T07:56:03.867Z,10.55
2022-10-21T08:01:03.900Z,10.78
2022-10-21T08:06:03.753Z,11.00
2022-10-21T08:11:03.668Z,11.16
2022-10-21T08:16:03.610Z,11.13
2022-10-21T08:21:03.541Z,11.18
2022-10-21T08:26:03.480Z,11.33
2022-10-21T08:31:03.454Z,11.40
2022-10-21T08:36:03.349Z,11.55
2022-10-21T08:41:03.299Z,11.71
2022-10-21T08:46:03.209Z,11.76
2022-10-21T08:51:03.162Z,11.87
2022-10-21T08:56:03.142Z,11.95
2022-10-21T09:01:03.012Z,12.11
2022-10-21T09:06:02.970Z,12.15
2022-10-21T09:11:02.903Z,12.17
2022-10-21T09:16:02.836Z,12.35
2022-10-21T09:21:05.696Z,12.36
2022-10-21T09:26:02.715Z,12.36
2022-10-21T09:31:02.649Z,12.46
2022-10-21T09:36:02.591Z,12.44
2022-10-21T09:41:02.536Z,12.59
2022-10-21T09:46:02.457Z,12.65
2022-10-21T09:51:02.408Z,12.76
2022-10-21T09:56:02.314Z,12.72
2022-10-21T10:01:02.265Z,12.87
2022-10-21T10:06:02.206Z,12.79
2022-10-21T10:11:02.152Z,12.87
2022-10-21T10:16:02.082Z,12.88
2022-10-21T10:21:02.018Z,12.81
2022-10-21T10:26:01.947Z,12.90
2022-10-21T10:31:01.890Z,12.95
2022-10-21T10:36:03.330Z,12.96
2022-10-21T10:41:01.770Z,13.05
2022-10-21T10:46:01.701Z,13.16
2022-10-21T10:51:01.631Z,13.11
2022-10-21T10:56:01.578Z,13.21
2022-10-21T11:01:01.572Z,13.19
2022-10-21T11:06:01.444Z,13.08
2022-10-21T11:11:01.393Z,13.06
2022-10-21T11:16:01.315Z,13.08
2022-10-21T11:21:01.255Z,13.19
2022-10-21T11:26:01.198Z,13.09
2022-10-21T11:31:01.145Z,13.11
2022-10-21T11:36:01.066Z,13.19
2022-10-21T11:41:01.005Z,13.17
2022-10-21T11:46:00.938Z,13.17
2022-10-21T11:51:03.735Z,13.21
2022-10-21T11:56:02.653Z,13.35
2022-10-21T12:01:00.753Z,13.45
2022-10-21T12:06:00.686Z,13.42
2022-10-21T12:11:00.639Z,13.45
2022-10-21T12:16:00.538Z,13.49
2022-10-21T12:21:00.566Z,13.57
2022-10-21T12:26:00.433Z,13.54
2022-10-21T12:31:00.374Z,13.58
2022-10-21T12:36:00.294Z,13.65
2022-10-21T12:41:00.228Z,13.68
2022-10-21T12:46:00.177Z,13.75
2022-10-21T12:51:00.101Z,13.75
2022-10-21T12:56:00.033Z,13.82
2022-10-21T13:01:00.059Z,13.83
2022-10-21T13:05:59.912Z,13.83
2022-10-21T13:10:59.888Z,13.85
2022-10-21T13:15:59.787Z,13.90
2022-10-21T13:20:59.723Z,13.93
2022-10-21T13:25:59.672Z,14.11
2022-10-21T13:30:59.576Z,14.28
2022-10-21T13:35:59.846Z,14.21
2022-10-21T13:40:59.467Z,14.28
2022-10-21T13:45:59.431Z,14.21
2022-10-21T13:50:59.349Z,14.37
2022-10-21T13:55:59.279Z,14.51
2022-10-21T14:00:59.360Z,14.56
2022-10-21T14:05:59.142Z,14.52
2022-10-21T14:10:59.079Z,14.51
2022-10-21T14:15:59.012Z,14.52
2022-10-21T14:20:58.971Z,14.59
2022-10-21T14:25:58.883Z,14.71
2022-10-21T14:30:58.877Z,14.89
2022-10-21T14:35:58.766Z,15.08
2022-10-21T14:40:58.712Z,15.14
2022-10-21T14:45:58.664Z,15.11
2022-10-21T14:50:58.597Z,15.03
2022-10-21T14:55:58.516Z,15.08
2022-10-21T15:00:58.457Z,15.20
2022-10-21T15:05:58.394Z,15.38
2022-10-21T15:10:58.335Z,15.38
2022-10-21T15:15:58.443Z,15.40
2022-10-21T15:20:58.235Z,15.32
2022-10-21T15:25:58.131Z,15.32
2022-10-21T15:30:58.081Z,15.25
2022-10-21T15:35:58.034Z,15.25
2022-10-21T15:40:57.961Z,15.20
2022-10-21T15:45:57.892Z,15.15
2022-10-21T15:50:57.834Z,15.12
2022-10-21T15:55:57.772Z,15.10
2022-10-21T16:00:57.744Z,15.11
2022-10-21T16:05:57.671Z,15.07
2022-10-21T16:10:57.606Z,15.01
2022-10-21T16:15:57.515Z,14.97
2022-10-21T16:20:57.476Z,14.87
2022-10-21T16:25:57.396Z,14.85
2022-10-21T16:30:57.376Z,14.86
2022-10-21T16:35:57.268Z,14.74
2022-10-21T16:40:57.217Z,14.70
2022-10-21T16:45:57.158Z,14.69
2022-10-21T16:50:57.083Z,14.55
2022-10-21T16:55:57.020Z,14.49
2022-10-21T17:00:56.995Z,14.40
2022-10-21T17:05:56.902Z,14.33
2022-10-21T17:10:56.844Z,14.26
2022-10-21T17:15:56.764Z,14.23
2022-10-21T17:20:56.713Z,14.18
2022-10-21T17:25:56.632Z,14.04
2022-10-21T17:30:56.584Z,13.96
2022-10-21T17:35:56.513Z,13.94
2022-10-21T17:40:56.455Z,13.93
2022-10-21T17:45:56.407Z,13.86
2022-10-21T17:50:56.321Z,13.85
2022-10-21T17:55:56.309Z,13.86
2022-10-21T18:00:56.242Z,13.88
2022-10-21T18:05:56.124Z,13.82
2022-10-21T18:10:56.068Z,13.80
2022-10-21T18:15:56.020Z,13.76
2022-10-21T18:20:55.949Z,13.85
2022-10-21T18:25:55.879Z,13.83
2022-10-21T18:30:55.819Z,13.82
2022-10-21T18:35:55.740Z,13.83
2022-10-21T18:41:01.838Z,13.76
2022-10-21T18:45:56.614Z,13.79
2022-10-21T18:50:55.562Z,13.76
2022-10-21T18:55:55.484Z,13.71
2022-10-21T19:00:55.574Z,13.79
2022-10-21T19:05:55.358Z,13.63
2022-10-21T19:10:55.294Z,13.58
2022-10-21T19:15:55.277Z,13.54
2022-10-21T19:20:55.173Z,13.51
2022-10-21T19:25:55.123Z,13.39
2022-10-21T19:30:55.038Z,13.20
2022-10-21T19:35:54.967Z,13.04
2022-10-21T19:40:54.911Z,12.90
2022-10-21T19:45:55.018Z,12.81
2022-10-21T19:50:54.760Z,12.73
2022-10-21T19:55:54.710Z,12.69
2022-10-21T20:00:54.708Z,12.65
2022-10-21T20:05:54.609Z,12.68
2022-10-21T20:10:54.554Z,12.68
2022-10-21T20:15:54.452Z,12.65
2022-10-21T20:20:54.407Z,12.59
2022-10-21T20:25:54.340Z,12.53
2022-10-21T20:30:54.282Z,12.55
2022-10-21T20:35:54.220Z,12.55
2022-10-21T20:40:54.142Z,12.46
2022-10-21T20:45:54.155Z,12.38
2022-10-21T20:50:54.032Z,12.36
2022-10-21T20:55:53.964Z,12.28
2022-10-21T21:00:53.905Z,12.18
2022-10-21T21:05:53.840Z,12.13
2022-10-21T21:10:53.755Z,12.13
2022-10-21T21:15:53.696Z,12.13
2022-10-21T21:20:53.734Z,12.11
2022-10-21T21:25:53.570Z,12.07
2022-10-21T21:30:53.525Z,12.08
2022-10-21T21:35:53.447Z,12.08
2022-10-21T21:40:53.388Z,12.00
2022-10-21T21:45:53.327Z,12.00
2022-10-21T21:50:53.266Z,12.03
2022-10-21T21:55:53.189Z,11.96
2022-10-21T22:00:53.148Z,11.91
2022-10-21T22:05:53.069Z,11.95
2022-10-21T22:10:53.039Z,11.84
2022-10-21T22:15:52.940Z,11.87
2022-10-21T22:20:52.862Z,11.80
2022-10-21T22:25:52.812Z,11.71
2022-10-21T22:30:52.743Z,11.61
2022-10-21T22:35:52.722Z,11.62
2022-10-21T22:40:52.626Z,11.48
2022-10-21T22:45:55.248Z,11.34
2022-10-21T22:50:53.494Z,11.36
2022-10-21T22:55:52.432Z,11.40
2022-10-21T23:00:52.435Z,11.41
2022-10-21T23:05:52.296Z,11.51
2022-10-21T23:10:52.229Z,11.52
2022-10-21T23:15:52.176Z,11.56
2022-10-21T23:20:52.107Z,11.56
2022-10-21T23:25:52.038Z,11.62
2022-10-21T23:30:51.986Z,11.64
2022-10-21T23:35:51.917Z,11.66
2022-10-21T23:40:51.848Z,11.64
2022-10-21T23:45:51.794Z,11.51
2022-10-21T23:50:51.739Z,11.37
2022-10-21T23:55:51.668Z,11.40
